Time;durP1;ratioP1;P1;durP2;ratioP2;P2;SDS_P1;SDS_P2;PMS_P1;PMS_P2;Temp;Humidity;BMP_temperature;BMP_pressure;BME280_temperature;BME280_humidity;BME280_pressure;Samples;Min_cycle;Max_cycle;Signal;HPM_P1;HPM_P2
2023/06/24 00:00:15;;;;;;;7.13;6.43;;;15.50;99.90;;;;;;5031085;28;20440;-68
2023/06/24 00:02:45;;;;;;;7.77;6.97;;;15.40;99.90;;;;;;5029406;28;20832;-68
2023/06/24 00:05:13;;;;;;;7.80;7.00;;;15.30;99.90;;;;;;5031317;28;20454;-68
2023/06/24 00:07:44;;;;;;;7.37;6.57;;;15.30;99.90;;;;;;5031099;28;20477;-68
2023/06/24 00:10:14;;;;;;;7.50;6.80;;;15.30;99.90;;;;;;5031463;28;20447;-68
2023/06/24 00:12:46;;;;;;;8.30;7.50;;;15.20;99.90;;;;;;5029642;28;20462;-68
2023/06/24 00:15:15;;;;;;;8.17;7.37;;;15.10;99.90;;;;;;5031107;28;20537;-68
2023/06/24 00:17:43;;;;;;;7.40;6.70;;;15.20;99.90;;;;;;5030733;28;20483;-68
2023/06/24 00:20:14;;;;;;;7.47;6.67;;;15.30;99.90;;;;;;5030921;28;20967;-68
2023/06/24 00:22:43;;;;;;;8.30;7.50;;;15.30;99.90;;;;;;5029108;28;20528;-68
2023/06/24 00:25:12;;;;;;;9.37;7.80;;;15.10;99.90;;;;;;5030489;28;20479;-68
2023/06/24 00:27:40;;;;;;;8.27;7.43;;;15.10;99.90;;;;;;5030275;28;20511;-68
2023/06/24 00:30:09;;;;;;;8.40;7.60;;;14.90;99.90;;;;;;5030328;28;20438;-68
2023/06/24 00:32:39;;;;;;;8.20;7.40;;;14.80;99.90;;;;;;5029332;28;20550;-68
2023/06/24 00:35:08;;;;;;;8.60;7.80;;;14.80;99.90;;;;;;5030107;28;20450;-68
2023/06/24 00:37:36;;;;;;;8.53;7.73;;;14.80;99.90;;;;;;5030386;28;20499;-68
2023/06/24 00:40:05;;;;;;;7.67;6.90;;;14.70;99.90;;;;;;5030389;28;20448;-68
2023/06/24 00:42:34;;;;;;;18.53;7.00;;;14.70;99.90;;;;;;5028832;28;20920;-68
2023/06/24 00:45:04;;;;;;;7.23;6.53;;;14.60;99.90;;;;;;5030129;28;20503;-69
2023/06/24 00:47:32;;;;;;;7.77;7.07;;;14.50;99.90;;;;;;5030094;28;20448;-69
2023/06/24 00:50:04;;;;;;;10.13;7.50;;;14.60;99.90;;;;;;5030075;28;21020;-68
2023/06/24 00:52:33;;;;;;;8.27;7.47;;;14.60;99.90;;;;;;5028921;28;20461;-68
2023/06/24 00:55:02;;;;;;;7.83;7.13;;;14.60;99.90;;;;;;5029705;28;20462;-68
2023/06/24 00:57:31;;;;;;;7.30;6.60;;;14.60;99.90;;;;;;5030160;28;20510;-68
2023/06/24 01:00:00;;;;;;;8.20;7.13;;;14.60;99.90;;;;;;5030160;28;20899;-68
2023/06/24 01:02:28;;;;;;;7.87;7.07;;;14.60;99.90;;;;;;5028737;28;20487;-68
2023/06/24 01:04:57;;;;;;;7.43;6.73;;;14.60;99.90;;;;;;5030020;28;20527;-68
2023/06/24 01:07:27;;;;;;;8.27;7.37;;;14.60;99.90;;;;;;5029719;28;20458;-68
2023/06/24 01:09:55;;;;;;;10.33;8.00;;;14.60;99.90;;;;;;5030069;28;20470;-68
2023/06/24 01:12:23;;;;;;;7.50;6.90;;;14.60;99.90;;;;;;5028366;28;20522;-68
2023/06/24 01:14:51;;;;;;;7.57;6.87;;;14.70;99.90;;;;;;5029715;28;20844;-68
2023/06/24 01:17:28;;;;;;;7.60;6.90;;;14.70;99.90;;;;;;5029622;28;20866;-68
2023/06/24 01:20:07;;;;;;;7.80;7.00;;;14.80;99.90;;;;;;5029588;28;20523;-68
2023/06/24 01:23:12;;;;;;;7.47;6.77;;;14.70;99.90;;;;;;5028649;28;20547;-68
2023/06/24 01:26:11;;;;;;;8.10;7.30;;;14.80;99.90;;;;;;5029720;28;21295;-68
2023/06/24 01:29:09;;;;;;;8.23;7.43;;;14.80;99.90;;;;;;5020992;28;20514;-68
2023/06/24 01:31:43;;;;;;;8.17;7.37;;;14.80;99.90;;;;;;5029783;28;20429;-68
2023/06/24 01:34:19;;;;;;;8.10;7.37;;;14.80;99.90;;;;;;5028278;28;20448;-68
2023/06/24 01:36:55;;;;;;;8.10;7.27;;;14.70;99.90;;;;;;5029565;28;20442;-68
2023/06/24 01:39:25;;;;;;;8.03;7.23;;;14.60;99.90;;;;;;5029602;28;20441;-68
2023/06/24 01:41:59;;;;;;;8.23;7.33;;;14.50;99.90;;;;;;5029539;28;20480;-68
2023/06/24 01:44:30;;;;;;;8.73;7.93;;;14.50;99.90;;;;;;5028661;28;20440;-68
2023/06/24 01:47:02;;;;;;;9.00;7.57;;;14.40;99.90;;;;;;5029579;28;20452;-68
2023/06/24 01:49:33;;;;;;;13.90;7.93;;;14.30;99.90;;;;;;5029829;28;20468;-68
2023/06/24 01:52:03;;;;;;;7.60;6.90;;;14.20;99.90;;;;;;5029287;28;20460;-68
2023/06/24 01:54:32;;;;;;;8.30;7.50;;;14.20;99.90;;;;;;5028732;28;20484;-68
2023/06/24 01:57:03;;;;;;;7.80;7.03;;;14.20;99.90;;;;;;5029475;28;20456;-68
2023/06/24 01:59:32;;;;;;;8.37;7.43;;;14.20;99.90;;;;;;5029576;28;20817;-68
2023/06/24 02:02:02;;;;;;;8.47;7.63;;;14.10;99.90;;;;;;5029432;28;20492;-68
2023/06/24 02:04:32;;;;;;;13.03;8.00;;;14.00;99.90;;;;;;5028970;28;20534;-68
2023/06/24 02:07:02;;;;;;;10.20;8.00;;;14.00;99.90;;;;;;5030001;28;20559;-68
2023/06/24 02:09:32;;;;;;;12.13;8.20;;;14.00;99.90;;;;;;5029640;28;20450;-68
2023/06/24 02:12:03;;;;;;;10.63;8.53;;;13.90;99.90;;;;;;5029716;28;20515;-68
2023/06/24 02:14:32;;;;;;;11.77;9.17;;;13.80;99.90;;;;;;5029022;28;20462;-68
2023/06/24 02:17:06;;;;;;;12.17;10.37;;;13.70;99.90;;;;;;5029691;28;20452;-68
2023/06/24 02:19:36;;;;;;;9.60;8.60;;;13.60;99.90;;;;;;5029627;28;20564;-68
2023/06/24 02:22:09;;;;;;;9.03;8.10;;;13.60;99.90;;;;;;5029467;28;20476;-68
2023/06/24 02:24:39;;;;;;;9.50;8.33;;;13.70;99.90;;;;;;5030392;28;20467;-68
2023/06/24 02:27:08;;;;;;;9.07;8.10;;;13.70;99.90;;;;;;5033731;28;20451;-68
2023/06/24 02:29:38;;;;;;;10.90;8.70;;;13.80;99.90;;;;;;5033351;28;20448;-68
2023/06/24 02:32:09;;;;;;;9.67;8.77;;;13.70;99.90;;;;;;5033090;28;20885;-68
2023/06/24 02:34:37;;;;;;;8.10;7.40;;;13.60;99.90;;;;;;5032657;28;20448;-68
2023/06/24 02:37:06;;;;;;;9.07;8.17;;;13.60;99.90;;;;;;5033308;28;20515;-68
2023/06/24 02:39:35;;;;;;;8.90;8.03;;;13.70;99.90;;;;;;5033149;28;20456;-68
2023/06/24 02:42:03;;;;;;;8.97;8.17;;;13.80;99.90;;;;;;5032704;28;20907;-68
2023/06/24 02:44:31;;;;;;;9.63;8.73;;;13.70;99.90;;;;;;5033188;28;20480;-68
2023/06/24 02:47:00;;;;;;;9.70;8.70;;;13.70;99.90;;;;;;5032989;28;20544;-68
2023/06/24 02:49:30;;;;;;;10.10;9.10;;;13.60;99.90;;;;;;5033048;28;20455;-68
2023/06/24 02:51:58;;;;;;;9.33;8.43;;;13.50;99.90;;;;;;5032813;28;20559;-68
2023/06/24 02:54:27;;;;;;;9.83;8.93;;;13.60;99.90;;;;;;5031560;28;20484;-68
2023/06/24 02:56:57;;;;;;;8.13;7.30;;;13.60;99.90;;;;;;5032435;28;20445;-68
2023/06/24 02:59:28;;;;;;;10.00;9.00;;;13.60;99.90;;;;;;5032515;28;20445;-67
2023/06/24 03:01:57;;;;;;;10.33;9.30;;;13.70;99.90;;;;;;5031886;28;20580;-67
2023/06/24 03:04:25;;;;;;;10.83;9.83;;;13.60;99.90;;;;;;5030819;28;20487;-67
2023/06/24 03:06:56;;;;;;;10.67;9.67;;;13.50;99.90;;;;;;5032041;28;20974;-67
2023/06/24 03:09:24;;;;;;;10.97;9.87;;;13.50;99.90;;;;;;5031984;28;20524;-67
2023/06/24 03:11:53;;;;;;;10.17;9.17;;;13.50;99.90;;;;;;5031931;28;20461;-67
2023/06/24 03:14:21;;;;;;;10.57;9.63;;;13.40;99.90;;;;;;5030443;28;20441;-67
2023/06/24 03:16:49;;;;;;;9.97;8.97;;;13.40;99.90;;;;;;5031806;28;20516;-67
2023/06/24 03:19:17;;;;;;;12.93;9.80;;;13.40;99.90;;;;;;5031987;28;20471;-67
2023/06/24 03:21:45;;;;;;;10.83;9.73;;;13.30;99.90;;;;;;5031864;28;20967;-67
2023/06/24 03:24:14;;;;;;;10.80;9.80;;;13.30;99.90;;;;;;5030617;28;20474;-67
2023/06/24 03:26:42;;;;;;;10.53;9.50;;;13.30;99.90;;;;;;5031845;28;20441;-67
2023/06/24 03:29:11;;;;;;;11.00;10.00;;;13.30;99.90;;;;;;5032001;28;20454;-67
2023/06/24 03:31:43;;;;;;;9.37;8.57;;;13.40;99.90;;;;;;5032031;28;20452;-67
2023/06/24 03:34:12;;;;;;;11.43;9.70;;;13.30;99.90;;;;;;5030557;28;20432;-67
2023/06/24 03:36:40;;;;;;;12.03;10.17;;;13.30;99.90;;;;;;5031039;28;20469;-67
2023/06/24 03:39:08;;;;;;;11.07;9.97;;;13.20;99.90;;;;;;5031646;28;20449;-67
2023/06/24 03:41:38;;;;;;;10.40;9.30;;;13.30;99.90;;;;;;5031383;28;20484;-67
2023/06/24 03:44:06;;;;;;;9.90;8.90;;;13.40;99.90;;;;;;5030579;28;20477;-67
2023/06/24 03:46:34;;;;;;;10.37;9.37;;;13.40;99.90;;;;;;5031508;28;20445;-67
2023/06/24 03:49:02;;;;;;;9.57;8.57;;;13.50;99.90;;;;;;5031798;28;21019;-67
2023/06/24 03:51:30;;;;;;;9.60;8.57;;;13.50;99.90;;;;;;5031632;28;20455;-67
2023/06/24 03:53:59;;;;;;;9.93;8.93;;;13.60;99.90;;;;;;5030116;28;20531;-67
2023/06/24 03:56:27;;;;;;;10.90;9.90;;;13.70;99.90;;;;;;5031386;28;20487;-67
2023/06/24 03:58:56;;;;;;;10.17;9.17;;;13.70;99.90;;;;;;5031325;28;20443;-67
2023/06/24 04:01:24;;;;;;;10.47;9.17;;;13.70;99.90;;;;;;5031730;28;20445;-67
2023/06/24 04:03:52;;;;;;;10.40;9.40;;;13.70;99.90;;;;;;5030451;28;20484;-67
2023/06/24 04:06:20;;;;;;;11.13;9.17;;;13.80;99.90;;;;;;5031596;28;20447;-67
2023/06/24 04:08:48;;;;;;;11.30;10.20;;;13.90;99.90;;;;;;5031173;28;20812;-67
2023/06/24 04:11:16;;;;;;;8.60;7.90;;;13.90;99.90;;;;;;5031870;28;20560;-68
2023/06/24 04:13:45;;;;;;;17.43;9.67;;;14.00;99.90;;;;;;5029899;28;20503;-67
2023/06/24 04:16:15;;;;;;;10.23;9.10;;;14.10;99.90;;;;;;5031482;28;20473;-67
2023/06/24 04:18:43;;;;;;;10.60;9.50;;;14.30;99.90;;;;;;5031244;28;20436;-67
2023/06/24 04:21:11;;;;;;;9.47;8.30;;;14.40;99.90;;;;;;5031085;28;20488;-67
2023/06/24 04:23:39;;;;;;;8.47;7.53;;;14.50;99.90;;;;;;5029775;28;20485;-67
2023/06/24 04:26:07;;;;;;;9.43;8.50;;;14.60;99.90;;;;;;5031386;28;20444;-67
2023/06/24 04:28:35;;;;;;;10.50;9.50;;;14.70;99.90;;;;;;5031332;28;20939;-67
2023/06/24 04:31:05;;;;;;;10.93;8.43;;;14.60;99.90;;;;;;5030880;28;20530;-67
2023/06/24 04:33:34;;;;;;;9.10;8.20;;;14.60;99.90;;;;;;5029759;28;20549;-67
2023/06/24 04:36:02;;;;;;;10.03;8.17;;;14.60;99.90;;;;;;5031029;28;20483;-67
2023/06/24 04:38:31;;;;;;;12.30;8.20;;;14.90;99.90;;;;;;5033278;28;20539;-67
2023/06/24 04:40:59;;;;;;;12.73;8.17;;;15.00;99.90;;;;;;5030729;28;20442;-67
2023/06/24 04:43:27;;;;;;;17.13;8.20;;;15.10;99.90;;;;;;5029139;28;20515;-67
2023/06/24 04:45:56;;;;;;;9.20;8.30;;;15.30;99.90;;;;;;5030974;28;20457;-67
2023/06/24 04:48:25;;;;;;;8.93;7.83;;;15.30;99.90;;;;;;5030247;28;20466;-67
2023/06/24 04:50:54;;;;;;;10.67;8.07;;;15.40;99.90;;;;;;5031249;28;20944;-67
2023/06/24 04:53:23;;;;;;;13.00;8.20;;;15.40;99.90;;;;;;5029428;28;20520;-67
2023/06/24 04:55:51;;;;;;;13.00;8.40;;;15.40;99.90;;;;;;5031333;28;20441;-67
2023/06/24 04:58:19;;;;;;;8.63;7.73;;;15.40;99.90;;;;;;5030923;28;20453;-67
2023/06/24 05:00:47;;;;;;;9.63;8.40;;;15.40;99.90;;;;;;5030444;28;20873;-67
2023/06/24 05:03:15;;;;;;;9.83;7.70;;;15.40;99.90;;;;;;5029167;28;20465;-67
2023/06/24 05:05:43;;;;;;;12.37;8.17;;;15.50;99.90;;;;;;5030783;28;20454;-67
2023/06/24 05:08:13;;;;;;;11.60;7.87;;;15.60;99.90;;;;;;5030307;28;20939;-67
2023/06/24 05:10:41;;;;;;;9.70;8.50;;;15.60;99.90;;;;;;5030318;28;20441;-67
2023/06/24 05:13:09;;;;;;;12.47;8.27;;;15.60;99.90;;;;;;5029310;28;20527;-67
2023/06/24 05:15:37;;;;;;;13.70;9.10;;;15.70;99.90;;;;;;5030272;28;20433;-67
2023/06/24 05:18:05;;;;;;;10.70;8.83;;;15.80;99.90;;;;;;5030227;28;20447;-67
2023/06/24 05:20:33;;;;;;;7.67;6.97;;;15.90;99.90;;;;;;5030281;28;20889;-67
2023/06/24 05:23:01;;;;;;;8.43;7.63;;;15.90;99.90;;;;;;5028967;28;20462;-67
2023/06/24 05:25:30;;;;;;;8.50;7.70;;;15.90;99.90;;;;;;5029699;28;21071;-67
2023/06/24 05:27:59;;;;;;;8.17;7.37;;;16.00;99.90;;;;;;5030071;28;20498;-67
2023/06/24 05:30:27;;;;;;;8.63;7.90;;;16.10;99.90;;;;;;5030006;28;20446;-68
2023/06/24 05:32:55;;;;;;;8.10;7.30;;;16.20;99.90;;;;;;5029040;28;20510;-68
2023/06/24 05:35:23;;;;;;;7.90;7.23;;;16.30;99.90;;;;;;5030237;28;20573;-68
2023/06/24 05:37:51;;;;;;;8.50;7.70;;;16.50;99.90;;;;;;5030386;28;20437;-68
2023/06/24 05:40:19;;;;;;;7.60;6.90;;;16.60;99.90;;;;;;5030188;28;20934;-68
2023/06/24 05:42:48;;;;;;;7.40;6.80;;;16.70;99.90;;;;;;5028936;28;20457;-68
2023/06/24 05:45:16;;;;;;;8.13;7.43;;;16.80;99.90;;;;;;5029863;28;20551;-68
2023/06/24 05:47:46;;;;;;;7.57;6.97;;;17.00;99.90;;;;;;5029734;28;20476;-68
2023/06/24 05:50:14;;;;;;;7.80;7.10;;;17.10;99.90;;;;;;5030096;28;21026;-69
2023/06/24 05:52:42;;;;;;;7.50;6.80;;;17.20;99.90;;;;;;5028582;28;20496;-69
2023/06/24 05:55:13;;;;;;;8.00;7.20;;;17.30;99.90;;;;;;5029891;28;20536;-69
2023/06/24 05:57:41;;;;;;;7.67;6.97;;;17.30;99.90;;;;;;5030121;28;20444;-68
2023/06/24 06:00:12;;;;;;;9.23;6.57;;;17.40;99.90;;;;;;5032649;28;20474;-68
2023/06/24 06:02:40;;;;;;;8.80;7.10;;;17.60;99.90;;;;;;5032588;28;20454;-68
2023/06/24 06:05:09;;;;;;;8.30;7.20;;;17.60;99.90;;;;;;5033445;28;20476;-69
2023/06/24 06:07:38;;;;;;;7.37;6.63;;;17.70;99.90;;;;;;5033380;28;20490;-69
2023/06/24 06:10:07;;;;;;;7.70;7.00;;;17.80;99.90;;;;;;5033842;28;20472;-69
2023/06/24 06:12:35;;;;;;;7.63;6.90;;;17.90;99.90;;;;;;5033156;28;20559;-68
2023/06/24 06:15:03;;;;;;;7.60;6.80;;;18.10;99.40;;;;;;5034388;28;20774;-69
2023/06/24 06:17:33;;;;;;;8.93;7.17;;;18.20;98.80;;;;;;5034097;28;20459;-69
2023/06/24 06:20:01;;;;;;;8.33;7.57;;;18.40;98.30;;;;;;5033914;28;20436;-69
2023/06/24 06:22:29;;;;;;;7.73;6.93;;;18.50;97.40;;;;;;5033214;28;20452;-69
2023/06/24 06:24:57;;;;;;;7.80;7.10;;;18.60;97.50;;;;;;5033799;28;20487;-69
2023/06/24 06:27:25;;;;;;;7.70;6.73;;;18.70;97.60;;;;;;5034054;28;20919;-68
2023/06/24 06:29:53;;;;;;;8.10;7.30;;;18.80;97.10;;;;;;5033967;28;20923;-68
2023/06/24 06:32:21;;;;;;;7.20;6.57;;;18.90;96.10;;;;;;5032943;28;20509;-69
2023/06/24 06:34:50;;;;;;;8.13;6.20;;;19.10;95.30;;;;;;5033572;28;20818;-69
2023/06/24 06:37:18;;;;;;;7.80;6.47;;;19.10;94.60;;;;;;5033268;28;21193;-69
2023/06/24 06:39:46;;;;;;;7.43;6.80;;;19.20;94.10;;;;;;5033206;28;20882;-69
2023/06/24 06:42:15;;;;;;;9.30;6.57;;;19.40;93.00;;;;;;5032058;28;20990;-69
2023/06/24 06:44:43;;;;;;;7.47;6.87;;;19.40;93.50;;;;;;5032131;28;20481;-69
2023/06/24 06:47:12;;;;;;;7.57;6.97;;;19.60;93.00;;;;;;5032386;28;20484;-69
2023/06/24 06:49:40;;;;;;;8.33;7.50;;;19.70;92.40;;;;;;5032647;28;20447;-68
2023/06/24 06:52:09;;;;;;;7.03;6.43;;;19.70;92.70;;;;;;5032353;28;20504;-68
2023/06/24 06:54:37;;;;;;;7.00;6.30;;;19.70;92.80;;;;;;5031876;28;20453;-68
2023/06/24 06:57:06;;;;;;;6.57;5.93;;;19.80;91.80;;;;;;5032629;28;20476;-68
2023/06/24 06:59:34;;;;;;;7.70;6.67;;;20.00;91.80;;;;;;5032594;28;20445;-70
2023/06/24 07:02:02;;;;;;;6.10;5.50;;;20.20;91.30;;;;;;5033104;28;20461;-69
2023/06/24 07:04:32;;;;;;;6.33;5.83;;;20.20;90.90;;;;;;5032451;28;20453;-70
2023/06/24 07:07:00;;;;;;;5.73;5.13;;;20.30;90.50;;;;;;5032911;28;20459;-69
2023/06/24 07:09:30;;;;;;;7.10;5.83;;;20.40;89.40;;;;;;5032389;28;20459;-70
2023/06/24 07:11:58;;;;;;;9.30;5.60;;;20.40;87.60;;;;;;5031615;28;20544;-69
2023/06/24 07:14:26;;;;;;;6.70;5.80;;;20.60;88.20;;;;;;5031806;28;20464;-69
2023/06/24 07:16:54;;;;;;;7.20;5.80;;;20.70;89.00;;;;;;5032717;28;20455;-69
2023/06/24 07:19:22;;;;;;;5.70;5.20;;;20.80;87.00;;;;;;5032253;28;20491;-69
2023/06/24 07:21:50;;;;;;;9.10;6.73;;;20.90;83.90;;;;;;5032145;28;20599;-69
2023/06/24 07:24:18;;;;;;;6.03;5.43;;;21.00;84.70;;;;;;5051483;28;20447;-69
2023/06/24 07:26:47;;;;;;;6.90;6.20;;;21.20;84.20;;;;;;5052224;28;20484;-68
2023/06/24 07:29:15;;;;;;;6.07;5.47;;;21.20;82.00;;;;;;5058673;28;20484;-69
2023/06/24 07:31:44;;;;;;;6.07;5.50;;;21.30;80.90;;;;;;5046921;28;20446;-68
2023/06/24 07:34:12;;;;;;;6.83;5.93;;;21.50;80.70;;;;;;5059862;28;20538;-68
2023/06/24 07:36:40;;;;;;;6.60;5.80;;;21.60;80.80;;;;;;5061702;28;20476;-70
2023/06/24 07:39:08;;;;;;;6.80;6.20;;;21.70;80.30;;;;;;5066005;28;20489;-70
2023/06/24 07:41:36;;;;;;;7.80;5.80;;;21.90;79.10;;;;;;5071479;28;20447;-71
2023/06/24 07:44:06;;;;;;;10.47;5.90;;;22.10;80.00;;;;;;5070616;28;20449;-71
2023/06/24 07:46:34;;;;;;;5.83;5.07;;;22.20;77.60;;;;;;5071266;28;20479;-71
2023/06/24 07:49:02;;;;;;;5.10;4.70;;;22.30;75.50;;;;;;5071728;28;20450;-70
2023/06/24 07:51:31;;;;;;;7.43;6.07;;;22.40;77.40;;;;;;5054791;28;20981;-71
2023/06/24 07:53:59;;;;;;;6.90;5.20;;;22.60;73.70;;;;;;5051271;28;20484;-71
2023/06/24 07:56:27;;;;;;;6.70;5.77;;;22.70;72.50;;;;;;5052085;28;20926;-70
2023/06/24 07:58:55;;;;;;;5.57;5.17;;;22.80;73.20;;;;;;5053063;28;20528;-71
2023/06/24 08:01:24;;;;;;;6.38;5.88;;;22.80;74.00;;;;;;5051207;28;20479;-70
2023/06/24 08:03:52;;;;;;;5.37;4.97;;;23.00;71.50;;;;;;5049842;28;20271;-71
2023/06/24 08:06:21;;;;;;;6.27;5.57;;;23.10;69.70;;;;;;5050881;28;20479;-69
2023/06/24 08:08:49;;;;;;;5.43;4.93;;;23.20;70.00;;;;;;5051297;28;20444;-69
2023/06/24 08:11:17;;;;;;;6.30;5.70;;;23.30;70.20;;;;;;5051686;28;20436;-69
2023/06/24 08:13:45;;;;;;;6.70;4.80;;;23.50;65.10;;;;;;5050059;28;20464;-68
2023/06/24 08:16:13;;;;;;;4.83;4.43;;;23.50;67.00;;;;;;5051254;28;20436;-69
2023/06/24 08:18:43;;;;;;;6.13;4.90;;;23.50;67.90;;;;;;5051083;28;20946;-69
2023/06/24 08:21:11;;;;;;;6.50;4.90;;;23.60;65.50;;;;;;5051073;28;20518;-70
2023/06/24 08:23:40;;;;;;;4.90;4.50;;;23.70;64.90;;;;;;5049620;28;20464;-70
2023/06/24 08:26:08;;;;;;;5.50;5.00;;;23.80;61.70;;;;;;5051256;28;20482;-68
2023/06/24 08:28:46;;;;;;;5.40;4.90;;;23.90;60.80;;;;;;5051131;28;20448;-70
2023/06/24 08:31:14;;;;;;;5.37;4.87;;;23.90;61.00;;;;;;5050332;28;20444;-69
2023/06/24 08:33:45;;;;;;;5.77;5.17;;;24.00;62.70;;;;;;5049325;28;20471;-70
2023/06/24 08:36:13;;;;;;;5.50;5.10;;;24.20;61.20;;;;;;5050576;28;20450;-70
2023/06/24 08:38:41;;;;;;;5.30;4.83;;;24.50;61.20;;;;;;5050758;28;20501;-71
2023/06/24 08:41:09;;;;;;;5.27;4.67;;;24.50;58.20;;;;;;5050498;28;20467;-69
2023/06/24 08:43:38;;;;;;;5.10;4.70;;;24.40;59.60;;;;;;5049222;28;20468;-68
2023/06/24 08:46:06;;;;;;;5.50;5.10;;;24.50;60.80;;;;;;5050863;28;20483;-67
2023/06/24 08:48:39;;;;;;;5.07;4.67;;;24.60;58.80;;;;;;5050960;28;20996;-69
2023/06/24 08:51:12;;;;;;;5.23;4.73;;;24.80;59.30;;;;;;5051237;28;20566;-70
2023/06/24 08:53:44;;;;;;;4.97;4.50;;;24.80;57.30;;;;;;5049115;28;20472;-70
2023/06/24 08:56:12;;;;;;;6.10;4.80;;;24.90;58.10;;;;;;5050217;28;20472;-70
2023/06/24 08:58:41;;;;;;;6.13;5.50;;;24.90;54.90;;;;;;5050425;28;20440;-69
2023/06/24 09:01:09;;;;;;;4.87;4.47;;;24.80;53.20;;;;;;5034955;28;20967;-68
2023/06/24 09:03:38;;;;;;;5.00;4.60;;;24.70;55.40;;;;;;5045490;28;20457;-68
2023/06/24 09:06:06;;;;;;;4.63;4.23;;;24.80;56.70;;;;;;5052060;28;20495;-70
2023/06/24 09:08:39;;;;;;;6.30;5.70;;;25.00;56.10;;;;;;5052989;28;20451;-69
2023/06/24 09:11:09;;;;;;;4.67;4.37;;;25.00;53.90;;;;;;5060301;28;20447;-70
2023/06/24 09:13:38;;;;;;;4.40;4.00;;;25.30;54.40;;;;;;5044070;28;20457;-70
2023/06/24 09:16:15;;;;;;;4.80;4.40;;;25.40;53.80;;;;;;5030798;28;20510;-70
2023/06/24 09:18:49;;;;;;;4.73;4.30;;;25.60;54.10;;;;;;5047338;28;20433;-70
2023/06/24 09:21:24;;;;;;;4.57;4.17;;;25.90;52.40;;;;;;5037808;28;20977;-70
2023/06/24 09:23:56;;;;;;;4.33;4.00;;;26.00;52.40;;;;;;5036359;28;20882;-69
2023/06/24 09:26:25;;;;;;;5.40;4.90;;;26.10;50.00;;;;;;5037034;28;20512;-69
2023/06/24 09:28:54;;;;;;;4.77;4.37;;;26.10;49.70;;;;;;5039909;28;21014;-70
2023/06/24 09:31:23;;;;;;;4.33;4.00;;;25.70;49.30;;;;;;5039237;28;20881;-69
2023/06/24 09:33:51;;;;;;;4.83;4.43;;;25.70;50.80;;;;;;5039769;28;20548;-69
2023/06/24 09:36:19;;;;;;;4.37;4.07;;;25.60;50.00;;;;;;5044084;28;20459;-69
2023/06/24 09:38:48;;;;;;;5.27;4.67;;;25.50;51.40;;;;;;5044770;28;20461;-69
2023/06/24 09:41:18;;;;;;;4.77;4.23;;;25.40;49.90;;;;;;5055506;28;20607;-70
2023/06/24 09:43:47;;;;;;;4.40;4.10;;;25.20;52.10;;;;;;5058000;28;21117;-69
2023/06/24 09:46:16;;;;;;;4.33;3.93;;;25.10;53.50;;;;;;5038108;28;20471;-68
2023/06/24 09:48:44;;;;;;;4.73;4.33;;;25.40;49.60;;;;;;5050438;28;20437;-68
2023/06/24 09:51:14;;;;;;;5.23;4.80;;;25.70;49.60;;;;;;5036326;28;20439;-70
2023/06/24 09:53:44;;;;;;;4.10;3.53;;;26.20;50.10;;;;;;5043766;28;20542;-70
2023/06/24 09:56:14;;;;;;;6.23;4.23;;;26.30;47.10;;;;;;5040130;28;20437;-70
2023/06/24 09:58:45;;;;;;;3.83;3.53;;;26.30;46.90;;;;;;5050695;28;20444;-70
2023/06/24 10:01:13;;;;;;;4.30;3.30;;;26.60;46.40;;;;;;5040027;28;20997;-71
2023/06/24 10:03:42;;;;;;;3.87;3.57;;;27.00;44.80;;;;;;5041954;28;20483;-72
2023/06/24 10:06:10;;;;;;;3.37;3.13;;;27.40;42.30;;;;;;5047793;28;20439;-72
2023/06/24 10:08:38;;;;;;;4.27;3.97;;;27.50;42.00;;;;;;5042037;28;20440;-71
2023/06/24 10:11:06;;;;;;;3.53;3.23;;;27.90;41.60;;;;;;5038730;28;20441;-73
2023/06/24 10:13:35;;;;;;;3.60;3.40;;;28.00;38.80;;;;;;5042324;28;20461;-72
2023/06/24 10:16:05;;;;;;;3.17;2.87;;;28.20;39.60;;;;;;5047190;28;20844;-71
2023/06/24 10:18:37;;;;;;;3.70;3.50;;;28.70;40.70;;;;;;5036618;28;20494;-72
2023/06/24 10:21:06;;;;;;;3.80;3.40;;;29.20;40.70;;;;;;5047790;28;20827;-72
2023/06/24 10:23:42;;;;;;;4.03;3.33;;;29.90;38.90;;;;;;5041687;28;20538;-70
2023/06/24 10:26:11;;;;;;;4.47;4.07;;;30.20;38.10;;;;;;5038809;28;20531;-71
2023/06/24 10:29:12;;;;;;;4.03;3.63;;;29.70;38.00;;;;;;5051342;28;20447;-70
2023/06/24 10:32:05;;;;;;;3.90;3.60;;;29.80;38.80;;;;;;5053090;28;20463;-72
2023/06/24 10:34:41;;;;;;;3.80;3.50;;;29.70;37.20;;;;;;5031781;28;20449;-71
2023/06/24 10:37:11;;;;;;;3.97;3.50;;;29.40;36.80;;;;;;5033226;28;20516;-71
2023/06/24 10:39:48;;;;;;;3.90;3.60;;;29.40;38.00;;;;;;5033073;28;20449;-71
2023/06/24 10:42:34;;;;;;;4.20;3.73;;;29.70;38.50;;;;;;5032808;28;20468;-71
2023/06/24 10:45:13;;;;;;;4.10;3.70;;;30.20;38.00;;;;;;5032571;28;20516;-72
2023/06/24 10:47:45;;;;;;;5.20;4.80;;;30.30;35.10;;;;;;5047899;28;21001;-72
2023/06/24 10:50:15;;;;;;;4.10;3.63;;;29.80;36.40;;;;;;5052888;28;20493;-70
2023/06/24 10:52:45;;;;;;;3.87;3.47;;;29.30;37.50;;;;;;5052727;28;20464;-71
2023/06/24 10:55:15;;;;;;;3.70;3.40;;;29.90;38.60;;;;;;5052905;28;20442;-71
2023/06/24 10:57:44;;;;;;;3.83;3.53;;;30.20;36.10;;;;;;5054034;28;20523;-70
2023/06/24 11:00:14;;;;;;;3.60;3.30;;;30.50;36.00;;;;;;5053205;28;20440;-70
2023/06/24 11:02:44;;;;;;;6.87;3.93;;;30.80;36.10;;;;;;5051460;28;20464;-70
2023/06/24 11:05:13;;;;;;;3.93;3.30;;;30.30;36.50;;;;;;5052747;28;20486;-70
2023/06/24 11:07:41;;;;;;;3.73;3.43;;;30.50;36.70;;;;;;5051898;28;20562;-70
2023/06/24 11:10:12;;;;;;;5.27;4.77;;;29.80;37.00;;;;;;5052733;28;20541;-73
2023/06/24 11:12:43;;;;;;;4.67;4.23;;;29.40;37.50;;;;;;5054252;28;20456;-71
2023/06/24 11:15:13;;;;;;;14.00;6.40;;;29.30;38.10;;;;;;5052075;28;20992;-72
2023/06/24 11:17:43;;;;;;;4.43;4.07;;;29.40;37.90;;;;;;5049608;28;20528;-70
2023/06/24 11:20:13;;;;;;;3.90;3.60;;;29.50;37.70;;;;;;5033303;28;20781;-69
2023/06/24 11:22:42;;;;;;;4.97;4.53;;;29.30;39.30;;;;;;5030865;28;20807;-69
2023/06/24 11:25:16;;;;;;;4.77;4.33;;;29.70;38.00;;;;;;5031888;28;20495;-69
2023/06/24 11:27:45;;;;;;;4.80;4.07;;;30.50;38.70;;;;;;5032027;28;20542;-71
2023/06/24 11:30:14;;;;;;;3.90;3.60;;;31.50;36.40;;;;;;5031944;28;20527;-70
2023/06/24 11:32:45;;;;;;;4.63;4.23;;;31.30;35.30;;;;;;5030830;28;20457;-71
2023/06/24 11:35:15;;;;;;;4.63;4.13;;;31.30;35.20;;;;;;5037051;28;20886;-71
2023/06/24 11:37:44;;;;;;;4.90;3.97;;;31.50;34.90;;;;;;5041692;28;20430;-71
2023/06/24 11:40:16;;;;;;;4.60;3.77;;;31.90;37.60;;;;;;5051537;28;20956;-71
2023/06/24 11:42:46;;;;;;;4.00;3.70;;;32.50;34.10;;;;;;5037958;28;20930;-72
2023/06/24 11:45:15;;;;;;;4.30;3.90;;;32.20;34.20;;;;;;5032363;28;20476;-71
2023/06/24 11:47:45;;;;;;;4.53;4.13;;;32.50;35.00;;;;;;5046078;28;21003;-72
2023/06/24 11:50:13;;;;;;;4.83;3.83;;;32.90;32.80;;;;;;5040637;28;20507;-72
2023/06/24 11:52:43;;;;;;;4.07;3.73;;;33.70;32.50;;;;;;5038202;28;20488;-72
2023/06/24 11:55:18;;;;;;;4.60;4.20;;;34.00;31.80;;;;;;5048124;28;20432;-72
2023/06/24 11:57:51;;;;;;;4.27;3.97;;;33.80;32.70;;;;;;5036444;28;20435;-71
2023/06/24 12:00:21;;;;;;;4.00;3.70;;;33.90;31.50;;;;;;5042114;28;20508;-71
2023/06/24 12:02:54;;;;;;;3.87;3.57;;;34.00;30.40;;;;;;5043879;28;20460;-70
2023/06/24 12:05:26;;;;;;;4.07;3.67;;;34.30;31.70;;;;;;5034860;28;20430;-70
2023/06/24 12:07:59;;;;;;;4.53;4.13;;;35.00;31.10;;;;;;5044758;28;20511;-70
2023/06/24 12:10:28;;;;;;;5.17;4.77;;;34.80;30.30;;;;;;5042136;28;20448;-70
2023/06/24 12:12:58;;;;;;;3.60;3.30;;;34.70;30.90;;;;;;5055532;28;20984;-70
2023/06/24 12:15:26;;;;;;;3.97;3.67;;;33.90;31.40;;;;;;5049820;28;20501;-70
2023/06/24 12:17:56;;;;;;;4.43;4.03;;;32.80;33.30;;;;;;5037628;28;20547;-70
2023/06/24 12:20:26;;;;;;;4.10;3.80;;;31.80;35.30;;;;;;5040797;28;20433;-72
2023/06/24 12:23:02;;;;;;;6.63;4.07;;;30.80;33.40;;;;;;5045081;28;20910;-72
2023/06/24 12:25:30;;;;;;;4.57;4.20;;;30.70;34.30;;;;;;5035950;28;20474;-68
2023/06/24 12:27:59;;;;;;;4.63;4.30;;;31.50;32.90;;;;;;5044197;28;20515;-70
2023/06/24 12:30:27;;;;;;;4.60;4.20;;;32.10;32.60;;;;;;5039475;28;20432;-69
2023/06/24 12:32:57;;;;;;;3.83;3.53;;;32.70;31.20;;;;;;5036500;28;20472;-71
2023/06/24 12:35:26;;;;;;;3.57;3.30;;;32.70;30.60;;;;;;5039052;28;20462;-71
2023/06/24 12:37:54;;;;;;;4.57;4.07;;;32.60;31.50;;;;;;5040404;28;20477;-70
2023/06/24 12:40:22;;;;;;;4.17;3.77;;;32.20;31.90;;;;;;5040900;28;20429;-70
2023/06/24 12:42:50;;;;;;;3.83;3.53;;;32.20;30.60;;;;;;5038493;28;20465;-70
2023/06/24 12:45:18;;;;;;;4.40;4.10;;;32.60;31.70;;;;;;5040849;28;20441;-70
2023/06/24 12:47:46;;;;;;;4.67;4.37;;;32.80;30.80;;;;;;5039298;28;20547;-70
2023/06/24 12:50:16;;;;;;;4.83;4.07;;;33.50;30.70;;;;;;5040921;28;20456;-70
2023/06/24 12:52:44;;;;;;;3.30;3.00;;;34.50;29.70;;;;;;5053100;28;20841;-70
2023/06/24 12:55:12;;;;;;;3.90;3.60;;;34.70;28.20;;;;;;5067593;28;20867;-70
2023/06/24 12:57:43;;;;;;;3.80;3.50;;;35.30;31.80;;;;;;5070799;28;20530;-71